»·PEaware :: N899M KLAX-KLAS

N899M :: KLAX-KLAS

FLIGHT INFORMATION

Flight Status: Arrived
Operator: Privately registered:
United States
More flights under this callsign
Pilot: Robert C. (30425)
Aircraft: Unknown
(EPIC)
More flights by this aircraft type
Origin: KLAX Los Angeles Intl
United States
Destination: KLAS McCarran Intl
United States
More flights between these airports :: More routes between these airports
Route: SKWRL2 VALEY SLAPP VVERA SSETH HEC CRESO4
File this flight plan on PilotEdge
Remarks:
Altitude:
(Current/Filed)
21,000ft
Speed:
(Current/Filed)
300kts
Departed: 05-Nov-20 09:04 PM
Arrived: 05-Nov-20 10:11 PM
Distance/Time
Traveled:
206nm/1:06
Distance/Time
To Go:
Arrived

Flight Plot

Page will automatically refresh every two minutes.

Flight plan parsing failed; only flown route is shown


Map Options




Map Legend


Flown Route
Filed Route
Departure Airport
Arrival Airport
Navaid (VOR, NDB)
Fix

Horizontal Profiles

Position Reports

Time Latitude Longitude Heading Altitude Ground
Speed
05-Nov-20 20:32 33.933536 -118.396946 287 115ft 0kts
05-Nov-20 20:33 33.933536 -118.396946 287 115ft 0kts
05-Nov-20 20:34 33.933536 -118.396946 287 115ft 0kts
05-Nov-20 20:35 33.933536 -118.396946 287 115ft 0kts
05-Nov-20 20:36 33.933536 -118.396946 287 115ft 0kts
05-Nov-20 20:37 33.933536 -118.396946 287 115ft 0kts
05-Nov-20 20:38 33.933536 -118.396946 287 115ft 0kts
05-Nov-20 20:39 33.933536 -118.396946 287 115ft 0kts
05-Nov-20 20:40 33.933536 -118.396946 287 115ft 0kts
05-Nov-20 20:41 33.933536 -118.396946 287 115ft 0kts
05-Nov-20 20:42 33.933536 -118.396946 287 115ft 0kts
05-Nov-20 20:43 33.933536 -118.396946 287 115ft 0kts
05-Nov-20 20:44 33.933536 -118.396946 287 115ft 0kts
05-Nov-20 20:45 33.933536 -118.396946 287 115ft 0kts
05-Nov-20 20:46 33.933536 -118.396946 287 115ft 0kts
05-Nov-20 20:47 33.933536 -118.396946 287 115ft 0kts
05-Nov-20 20:48 33.933536 -118.396946 287 115ft 0kts
05-Nov-20 20:49 33.933536 -118.396946 287 115ft 0kts
05-Nov-20 20:50 33.933536 -118.396946 287 115ft 0kts
05-Nov-20 20:51 33.933536 -118.396946 287 115ft 0kts
05-Nov-20 20:52 33.933304 -118.397525 218 117ft 8kts
05-Nov-20 20:53 33.932672 -118.398628 281 119ft 0kts
05-Nov-20 20:54 33.932672 -118.398628 281 119ft 0kts
05-Nov-20 20:55 33.932672 -118.398628 281 119ft 0kts
05-Nov-20 20:56 33.932731 -118.398793 310 119ft 5kts
05-Nov-20 20:57 33.933961 -118.398130 6 114ft 12kts
05-Nov-20 20:58 33.935001 -118.393670 83 106ft 18kts
05-Nov-20 20:59 33.935684 -118.387372 84 102ft 19kts
05-Nov-20 21:00 33.936444 -118.382756 3 99ft 0kts
05-Nov-20 21:01 33.936444 -118.382756 3 99ft 0kts
05-Nov-20 21:02 33.936444 -118.382756 3 99ft 0kts
05-Nov-20 21:03 33.936887 -118.386999 263 102ft 94kts
05-Nov-20 21:04 33.931469 -118.442632 263 1415ft 222kts
05-Nov-20 21:05 33.923438 -118.523141 263 2550ft 257kts
05-Nov-20 21:06 33.920813 -118.611994 306 3048ft 281kts
05-Nov-20 21:07 33.978259 -118.584953 50 4379ft 264kts
05-Nov-20 21:08 34.044196 -118.572493 347 5698ft 266kts
05-Nov-20 21:09 34.112756 -118.541499 29 7212ft 267kts
05-Nov-20 21:10 34.177517 -118.498350 30 9108ft 267kts
05-Nov-20 21:11 34.236872 -118.458704 30 10831ft 271kts
05-Nov-20 21:13 34.305888 -118.419358 26 12730ft 278kts
05-Nov-20 21:14 34.376774 -118.380128 26 14624ft 284kts
05-Nov-20 21:15 34.448843 -118.339739 34 16507ft 287kts
05-Nov-20 21:16 34.481113 -118.256664 77 18400ft 274kts
05-Nov-20 21:17 34.501505 -118.168811 79 20283ft 269kts
05-Nov-20 21:18 34.522176 -118.078326 78 21059ft 297kts
05-Nov-20 21:19 34.544836 -117.978973 78 21052ft 312kts
05-Nov-20 21:20 34.568106 -117.876518 78 21054ft 317kts
05-Nov-20 21:21 34.590941 -117.775581 78 21052ft 301kts
05-Nov-20 21:22 34.610520 -117.678826 81 21061ft 290kts
05-Nov-20 21:23 34.628661 -117.584159 81 21073ft 288kts
05-Nov-20 21:24 34.646866 -117.488737 81 21074ft 291kts
05-Nov-20 21:25 34.665069 -117.392889 81 21073ft 292kts
05-Nov-20 21:26 34.683278 -117.296593 81 21074ft 292kts
05-Nov-20 21:27 34.701448 -117.200039 81 21074ft 293kts
05-Nov-20 21:28 34.719484 -117.103775 81 21072ft 293kts
05-Nov-20 21:29 34.736521 -117.008193 86 21048ft 293kts
05-Nov-20 21:30 34.747769 -116.909963 87 21028ft 294kts
05-Nov-20 21:30 34.756984 -116.827540 87 21019ft 295kts
05-Nov-20 21:32 34.769767 -116.712353 87 21019ft 295kts
05-Nov-20 21:33 34.780617 -116.613781 87 21019ft 294kts
05-Nov-20 21:33 34.789645 -116.531210 87 21019ft 294kts
05-Nov-20 21:35 34.826447 -116.425264 52 21022ft 311kts
05-Nov-20 21:35 34.875443 -116.360658 51 21027ft 312kts
05-Nov-20 21:37 34.944230 -116.270609 51 21051ft 312kts
05-Nov-20 21:37 34.993658 -116.205771 50 21056ft 313kts
05-Nov-20 21:38 35.052934 -116.127855 50 21049ft 314kts
05-Nov-20 21:39 35.112210 -116.049759 50 21042ft 312kts
05-Nov-20 21:40 35.169777 -115.973745 50 21041ft 298kts
05-Nov-20 21:41 35.225317 -115.900219 50 20571ft 290kts
05-Nov-20 21:42 35.278969 -115.829052 50 19292ft 280kts
05-Nov-20 21:43 35.330383 -115.760786 50 17783ft 266kts
05-Nov-20 21:44 35.379295 -115.695714 50 16374ft 256kts
05-Nov-20 21:45 35.426062 -115.633277 50 15160ft 243kts
05-Nov-20 21:46 35.471067 -115.573075 50 13952ft 236kts
05-Nov-20 21:47 35.514929 -115.514307 49 12748ft 232kts
05-Nov-20 21:48 35.557399 -115.457379 49 12031ft 213kts
05-Nov-20 21:49 35.597442 -115.403587 49 12036ft 214kts
05-Nov-20 21:50 35.637606 -115.349509 50 12036ft 214kts
05-Nov-20 21:51 35.677875 -115.295219 50 12037ft 215kts
05-Nov-20 21:52 35.718030 -115.241013 50 12037ft 215kts
05-Nov-20 21:53 35.758068 -115.186879 50 12035ft 212kts
05-Nov-20 21:54 35.798217 -115.134062 51 12030ft 210kts
05-Nov-20 21:55 35.837348 -115.080650 51 12025ft 209kts
05-Nov-20 21:56 35.870090 -115.025495 61 11266ft 197kts
05-Nov-20 21:57 35.899999 -114.967427 61 9698ft 202kts
05-Nov-20 21:58 35.927370 -114.911373 61 8215ft 168kts
05-Nov-20 21:59 35.948687 -114.865310 61 7015ft 150kts
05-Nov-20 22:00 35.968917 -114.820436 61 7008ft 149kts
05-Nov-20 22:01 36.011181 -114.810859 1 6027ft 178kts
05-Nov-20 22:02 36.059139 -114.818924 306 4994ft 169kts
05-Nov-20 22:03 36.071710 -114.867773 277 5001ft 136kts
05-Nov-20 22:04 36.073332 -114.915464 271 5011ft 143kts
05-Nov-20 22:05 36.073490 -114.965464 271 4589ft 140kts
05-Nov-20 22:06 36.073559 -115.011656 272 3888ft 130kts
05-Nov-20 22:07 36.073605 -115.054200 271 3222ft 119kts
05-Nov-20 22:08 36.073645 -115.097010 270 2563ft 132kts
05-Nov-20 22:09 36.073611 -115.136906 275 2074ft 59kts
05-Nov-20 22:10 36.074749 -115.145960 304 2098ft 0kts
05-Nov-20 22:11 36.075138 -115.146497 329 2099ft 10kts
05-Nov-20 22:12 36.077377 -115.146573 9 2098ft 0kts
05-Nov-20 22:13 36.077455 -115.146583 340 2098ft 3kts
05-Nov-20 22:14 36.078424 -115.144898 95 2089ft 19kts
05-Nov-20 22:15 36.078291 -115.137180 88 2066ft 24kts
05-Nov-20 22:16 36.081687 -115.133910 4 2050ft 15kts
05-Nov-20 22:17 36.084156 -115.134686 297 2045ft 3kts
05-Nov-20 22:18 36.085426 -115.136217 1 2048ft 0kts
05-Nov-20 22:19 36.085426 -115.136217 1 2048ft 0kts
05-Nov-20 22:20 36.085426 -115.136217 1 2048ft 0kts

Navigation Log

Ident Type
Flight plan parsing failed, navigation log unavailable